首页
METAR-TAF:

METAR-TAF

机场 :

帕耶讷, 瑞士

纬度: 46-49N, 经度: 006-57E, 海拔: 490米

当前天气观测

该预报发布于30分钟前的16:50 UTC
风速7节,风向东北
温度 25°C
湿度 36%
气压 1016 hPa
能见度10公里或以上

METAR: LSMP 011650Z AUTO 05007KT 9999NDV NCD 25/09 Q1016 RMK

时间: 19:20 (17:20 UTC)


TAF: 丢失

超过4000个机场的气象观测和天气预报(METAR&TAF报告)。

可查询的气象台以黄色和红色小点在地图上表示。

将鼠标移到小点上方,可查看气象台名称。

然后点击查看天气观测和预报。

如需切换地图:点击带黑十字的绿色按钮放大地图;点击带横线的绿色按钮缩小地图;或者点击绿色箭头查看邻近地区的地图。


METAR-TAF: